Time;durP1;ratioP1;P1;durP2;ratioP2;P2;SDS_P1;SDS_P2;PMS_P1;PMS_P2;Temp;Humidity;BMP_temperature;BMP_pressure;BME280_temperature;BME280_humidity;BME280_pressure;Samples;Min_cycle;Max_cycle;Signal;HPM_P1;HPM_P2
2022/05/17 00:00:11;;;;;;;;;;;17.10;99.20;;;;;;5061255;28;19938;-86
2022/05/17 00:02:41;;;;;;;;;;;17.10;99.20;;;;;;5058300;28;19935;-87
2022/05/17 00:05:10;;;;;;;;;;;17.00;99.20;;;;;;5040432;28;20425;-86
2022/05/17 00:07:38;;;;;;;;;;;17.00;99.20;;;;;;5037350;28;20016;-85
2022/05/17 00:10:06;;;;;;;;;;;17.00;99.20;;;;;;5042997;28;19925;-85
2022/05/17 00:12:34;;;;;;;;;;;17.00;99.20;;;;;;5041905;28;19939;-86
2022/05/17 00:15:01;;;;;;;;;;;16.90;99.20;;;;;;5043448;28;19940;-85
2022/05/17 00:17:28;;;;;;;;;;;17.00;99.20;;;;;;5052491;28;20025;-86
2022/05/17 00:19:54;;;;;;;;;;;16.90;99.20;;;;;;5039611;28;19925;-86
2022/05/17 00:22:21;;;;;;;;;;;16.90;99.30;;;;;;5045216;28;19929;-85
2022/05/17 00:24:50;;;;;;;;;;;16.90;99.30;;;;;;5035901;28;21355;-85
2022/05/17 00:27:17;;;;;;;;;;;16.90;99.30;;;;;;5042690;28;19933;-85
2022/05/17 00:29:44;;;;;;;;;;;16.80;99.30;;;;;;5047134;28;19932;-85
2022/05/17 00:32:11;;;;;;;;;;;16.80;99.30;;;;;;5041226;28;20013;-85
2022/05/17 00:34:38;;;;;;;;;;;16.80;99.30;;;;;;5043148;28;19955;-85
2022/05/17 00:37:05;;;;;;;;;;;16.70;99.30;;;;;;5041059;28;20394;-85
2022/05/17 00:39:32;;;;;;;;;;;16.80;99.40;;;;;;5041445;28;20349;-85
2022/05/17 00:42:01;;;;;;;;;;;16.70;99.30;;;;;;5043905;28;20403;-85
2022/05/17 00:47:14;;;;;;;;;;;16.70;99.40;;;;;;5055348;28;20035;-85
2022/05/17 00:49:43;;;;;;;;;;;16.70;99.40;;;;;;5039518;28;20047;-85
2022/05/17 00:52:12;;;;;;;;;;;16.70;99.50;;;;;;5043192;28;20016;-85
2022/05/17 00:54:40;;;;;;;;;;;16.60;99.30;;;;;;5037775;28;19932;-85
2022/05/17 00:57:12;;;;;;;;;;;16.60;99.40;;;;;;5039958;28;19924;-85
2022/05/17 00:59:39;;;;;;;;;;;16.60;99.30;;;;;;5044370;28;19944;-86
2022/05/17 01:02:08;;;;;;;;;;;16.50;99.30;;;;;;5054818;28;19929;-85
2022/05/17 01:04:35;;;;;;;;;;;16.50;99.40;;;;;;5044981;28;19978;-85
2022/05/17 01:07:04;;;;;;;;;;;16.50;99.40;;;;;;5040525;28;19929;-85
2022/05/17 01:09:30;;;;;;;;;;;16.50;99.30;;;;;;5037660;28;19925;-84
2022/05/17 01:11:58;;;;;;;;;;;16.50;99.30;;;;;;5042088;28;19924;-85
2022/05/17 01:17:11;;;;;;;;;;;16.40;99.60;;;;;;5045194;28;19932;-85
2022/05/17 01:19:39;;;;;;;;;;;16.40;99.40;;;;;;5041923;28;19925;-85
2022/05/17 01:22:07;;;;;;;;;;;16.40;99.40;;;;;;5050371;28;19952;-85
2022/05/17 01:24:34;;;;;;;;;;;16.40;99.40;;;;;;5057009;28;19960;-85
2022/05/17 01:27:05;;;;;;;;;;;16.40;99.40;;;;;;5039838;28;19933;-85
2022/05/17 01:29:37;;;;;;;;;;;16.30;99.30;;;;;;5041964;28;19929;-85
2022/05/17 01:32:05;;;;;;;;;;;16.30;99.40;;;;;;5040120;28;20332;-85
2022/05/17 01:34:32;;;;;;;;;;;16.30;99.30;;;;;;5041585;28;19929;-85
2022/05/17 01:36:59;;;;;;;;;;;16.30;99.30;;;;;;5039145;28;19932;-86
2022/05/17 01:39:28;;;;;;;;;;;16.30;99.30;;;;;;5067616;28;20488;-85
2022/05/17 01:41:55;;;;;;;;;;;16.20;99.30;;;;;;5040092;28;19950;-86
2022/05/17 01:44:23;;;;;;;;;;;16.20;99.30;;;;;;5062416;28;19928;-84
2022/05/17 01:46:49;;;;;;;;;;;16.20;99.30;;;;;;5045207;28;19928;-84
2022/05/17 01:49:16;;;;;;;;;;;16.20;99.30;;;;;;5041464;28;19972;-85
2022/05/17 01:51:43;;;;;;;;;;;16.20;99.30;;;;;;5042157;28;19925;-85
2022/05/17 01:54:10;;;;;;;;;;;16.10;99.20;;;;;;5059977;28;19968;-85
2022/05/17 01:56:39;;;;;;;;;;;16.10;99.20;;;;;;5046556;28;19924;-85
2022/05/17 01:59:06;;;;;;;;;;;16.10;99.20;;;;;;5037982;28;19960;-85
2022/05/17 02:01:33;;;;;;;;;;;16.10;99.10;;;;;;5060634;28;19929;-84
2022/05/17 02:04:00;;;;;;;;;;;16.00;99.10;;;;;;5039732;28;19924;-85
2022/05/17 02:06:27;;;;;;;;;;;16.10;99.10;;;;;;5047857;28;20011;-85
2022/05/17 02:08:54;;;;;;;;;;;16.00;99.10;;;;;;5046565;28;19933;-83
2022/05/17 02:11:21;;;;;;;;;;;16.00;99.10;;;;;;5043077;28;19932;-85
2022/05/17 02:13:49;;;;;;;;;;;16.00;99.00;;;;;;5042258;28;20120;-85
2022/05/17 02:16:16;;;;;;;;;;;16.00;99.00;;;;;;5041923;28;19929;-85
2022/05/17 02:18:43;;;;;;;;;;;15.90;99.00;;;;;;5063550;28;19925;-85
2022/05/17 02:21:10;;;;;;;;;;;15.90;99.00;;;;;;5046751;22;20475;-82
2022/05/17 02:23:37;;;;;;;;;;;15.90;99.00;;;;;;5032973;28;20392;-81
2022/05/17 02:26:04;;;;;;;;;;;15.90;98.90;;;;;;5024915;28;20027;-82
2022/05/17 02:28:31;;;;;;;;;;;15.80;98.90;;;;;;5023478;28;19933;-81
2022/05/17 02:31:00;;;;;;;;;;;15.80;98.90;;;;;;5027975;28;20000;-82
2022/05/17 02:33:27;;;;;;;;;;;15.80;98.90;;;;;;5028605;28;19939;-81
2022/05/17 02:35:54;;;;;;;;;;;15.80;98.90;;;;;;5031518;28;19937;-82
2022/05/17 02:38:21;;;;;;;;;;;15.80;98.90;;;;;;5024672;28;20327;-81
2022/05/17 02:40:48;;;;;;;;;;;15.80;98.90;;;;;;5032228;28;19999;-82
2022/05/17 02:43:15;;;;;;;;;;;15.80;98.90;;;;;;5022492;28;19933;-82
2022/05/17 02:45:42;;;;;;;;;;;15.70;98.90;;;;;;5029135;28;19968;-81
2022/05/17 02:48:10;;;;;;;;;;;15.70;98.90;;;;;;5027073;28;19971;-81
2022/05/17 02:50:37;;;;;;;;;;;15.70;98.90;;;;;;5028749;28;19949;-81
2022/05/17 02:53:04;;;;;;;;;;;15.70;98.90;;;;;;5027089;28;20411;-82
2022/05/17 02:55:32;;;;;;;;;;;15.70;98.90;;;;;;5031340;28;19925;-81
2022/05/17 02:57:59;;;;;;;;;;;15.70;98.90;;;;;;5024734;28;19926;-82
2022/05/17 03:00:26;;;;;;;;;;;15.60;98.90;;;;;;5030722;28;19926;-81
2022/05/17 03:02:53;;;;;;;;;;;15.60;98.90;;;;;;5027248;28;19929;-80
2022/05/17 03:05:22;;;;;;;;;;;15.60;98.90;;;;;;5029031;28;19925;-82
2022/05/17 03:07:49;;;;;;;;;;;15.60;98.90;;;;;;5029590;28;19925;-81
2022/05/17 03:10:17;;;;;;;;;;;15.60;98.90;;;;;;5028854;28;19924;-80
2022/05/17 03:12:44;;;;;;;;;;;15.50;98.90;;;;;;5027098;28;19933;-81
2022/05/17 03:15:14;;;;;;;;;;;15.50;98.90;;;;;;5030924;28;19932;-81
2022/05/17 03:17:40;;;;;;;;;;;15.50;98.90;;;;;;5020322;28;19932;-82
2022/05/17 03:20:08;;;;;;;;;;;15.40;98.90;;;;;;5028673;28;19945;-81
2022/05/17 03:22:37;;;;;;;;;;;15.40;98.90;;;;;;5021854;28;19925;-82
2022/05/17 03:25:04;;;;;;;;;;;15.50;98.90;;;;;;5024938;28;20247;-81
2022/05/17 03:27:31;;;;;;;;;;;15.50;99.00;;;;;;5031605;28;19925;-81
2022/05/17 03:29:58;;;;;;;;;;;15.40;99.00;;;;;;5026696;28;19929;-80
2022/05/17 03:32:25;;;;;;;;;;;15.40;98.90;;;;;;5024652;28;20422;-82
2022/05/17 03:34:52;;;;;;;;;;;15.40;99.00;;;;;;5030274;28;19967;-81
2022/05/17 03:37:19;;;;;;;;;;;15.30;98.90;;;;;;5024121;28;19926;-81
2022/05/17 03:39:48;;;;;;;;;;;15.30;98.90;;;;;;5020912;28;19925;-80
2022/05/17 03:42:15;;;;;;;;;;;15.30;98.90;;;;;;5025738;28;19934;-81
2022/05/17 03:44:44;;;;;;;;;;;15.30;99.00;;;;;;5025901;28;19925;-81
2022/05/17 03:47:11;;;;;;;;;;;15.30;99.00;;;;;;5030813;28;20400;-81
2022/05/17 03:49:39;;;;;;;;;;;15.30;99.00;;;;;;5026088;28;19933;-81
2022/05/17 03:52:06;;;;;;;;;;;15.30;99.10;;;;;;5030601;28;19997;-81
2022/05/17 03:54:33;;;;;;;;;;;15.20;99.00;;;;;;5032149;28;19929;-81
2022/05/17 03:57:02;;;;;;;;;;;15.20;99.00;;;;;;5019672;28;19925;-81
2022/05/17 03:59:29;;;;;;;;;;;15.20;99.00;;;;;;5019561;28;19930;-80
2022/05/17 04:01:56;;;;;;;;;;;15.20;99.00;;;;;;5026604;28;19932;-81
2022/05/17 04:04:23;;;;;;;;;;;15.20;99.00;;;;;;5012752;28;19940;-80
2022/05/17 04:06:50;;;;;;;;;;;15.10;98.90;;;;;;5016154;28;19930;-80
2022/05/17 04:09:17;;;;;;;;;;;15.10;99.00;;;;;;5036564;28;20449;-81
2022/05/17 04:11:44;;;;;;;;;;;15.10;99.10;;;;;;5010062;28;19929;-80
2022/05/17 04:14:12;;;;;;;;;;;15.10;99.30;;;;;;5024157;28;20383;-79
2022/05/17 04:16:40;;;;;;;;;;;15.10;99.40;;;;;;5023244;28;19925;-82
2022/05/17 04:19:07;;;;;;;;;;;15.10;99.50;;;;;;5018451;28;19975;-78
2022/05/17 04:21:35;;;;;;;;;;;15.10;99.60;;;;;;5024846;28;19968;-80
2022/05/17 04:24:02;;;;;;;;;;;15.10;99.60;;;;;;5009118;28;19925;-84
2022/05/17 04:26:29;;;;;;;;;;;15.10;99.70;;;;;;5030814;28;19987;-79
2022/05/17 04:28:58;;;;;;;;;;;15.00;99.50;;;;;;5018351;28;19932;-84
2022/05/17 04:31:27;;;;;;;;;;;15.00;99.50;;;;;;5009070;28;19929;-82
2022/05/17 04:33:54;;;;;;;;;;;15.00;99.60;;;;;;5012017;28;20384;-79
2022/05/17 04:36:21;;;;;;;;;;;15.00;99.50;;;;;;5014900;28;21432;-83
2022/05/17 04:38:48;;;;;;;;;;;15.00;99.60;;;;;;5022272;28;20447;-85
2022/05/17 04:41:15;;;;;;;;;;;14.90;99.60;;;;;;5011172;28;19992;-85
2022/05/17 04:43:42;;;;;;;;;;;15.00;99.70;;;;;;5020450;28;19967;-79
2022/05/17 04:46:09;;;;;;;;;;;14.90;99.70;;;;;;5034818;28;19991;-81
2022/05/17 04:48:38;;;;;;;;;;;14.90;99.60;;;;;;5013216;28;19929;-80
2022/05/17 04:51:09;;;;;;;;;;;14.90;99.70;;;;;;5018303;28;19928;-83
2022/05/17 04:53:36;;;;;;;;;;;14.90;99.70;;;;;;5020432;28;20403;-85
2022/05/17 04:56:03;;;;;;;;;;;14.90;99.70;;;;;;5018672;28;19941;-82
2022/05/17 04:58:30;;;;;;;;;;;14.90;99.60;;;;;;5015580;28;19952;-81
2022/05/17 05:00:57;;;;;;;;;;;14.90;99.50;;;;;;5026921;28;20305;-81
2022/05/17 05:03:24;;;;;;;;;;;14.80;99.50;;;;;;5017708;28;19936;-82
2022/05/17 05:05:52;;;;;;;;;;;14.80;99.40;;;;;;5019774;28;20545;-81
2022/05/17 05:08:20;;;;;;;;;;;14.80;99.40;;;;;;5028438;28;19925;-81
2022/05/17 05:10:47;;;;;;;;;;;14.70;99.70;;;;;;5017825;28;19929;-81
2022/05/17 05:13:16;;;;;;;;;;;14.80;99.90;;;;;;5011508;28;20032;-80
2022/05/17 05:15:42;;;;;;;;;;;14.90;99.90;;;;;;5019516;28;20067;-80
2022/05/17 05:18:10;;;;;;;;;;;14.80;99.90;;;;;;5015448;28;19929;-80
2022/05/17 05:20:38;;;;;;;;;;;14.80;99.90;;;;;;5008848;28;21191;-80
2022/05/17 05:23:07;;;;;;;;;;;14.90;99.90;;;;;;5004664;28;19924;-79
2022/05/17 05:25:34;;;;;;;;;;;15.00;99.90;;;;;;5015912;28;19932;-79
2022/05/17 05:28:03;;;;;;;;;;;15.00;99.90;;;;;;5030215;28;19949;-78
2022/05/17 05:30:30;;;;;;;;;;;15.00;99.90;;;;;;5024420;28;19929;-79
2022/05/17 05:32:58;;;;;;;;;;;14.90;99.90;;;;;;5009643;28;19926;-79
2022/05/17 05:35:25;;;;;;;;;;;14.80;99.90;;;;;;5017416;28;20024;-79
2022/05/17 05:37:53;;;;;;;;;;;14.70;99.90;;;;;;5029412;28;19932;-80
2022/05/17 05:40:21;;;;;;;;;;;14.70;99.90;;;;;;5019135;28;20052;-78
2022/05/17 05:42:50;;;;;;;;;;;14.70;99.90;;;;;;5024290;28;19925;-78
2022/05/17 05:45:18;;;;;;;;;;;14.70;99.90;;;;;;5035230;28;20288;-78
2022/05/17 05:47:45;;;;;;;;;;;14.70;99.90;;;;;;5019377;28;19933;-79
2022/05/17 05:50:12;;;;;;;;;;;14.70;99.90;;;;;;5023677;28;19957;-78
2022/05/17 05:52:39;;;;;;;;;;;14.70;99.90;;;;;;5028096;28;19940;-79
2022/05/17 05:55:07;;;;;;;;;;;14.70;99.90;;;;;;5024691;28;19987;-78
2022/05/17 05:57:35;;;;;;;;;;;14.70;99.90;;;;;;5020119;28;20323;-78
2022/05/17 06:00:03;;;;;;;;;;;14.80;99.90;;;;;;5019452;28;19940;-78
2022/05/17 06:02:38;;;;;;;;;;;14.80;99.90;;;;;;5022180;28;19925;-78
2022/05/17 06:05:05;;;;;;;;;;;14.80;99.90;;;;;;5033041;28;19944;-79
2022/05/17 06:07:34;;;;;;;;;;;14.80;99.90;;;;;;5017379;28;19953;-78
2022/05/17 06:10:01;;;;;;;;;;;14.80;99.90;;;;;;5017094;28;19930;-78
2022/05/17 06:12:28;;;;;;;;;;;14.80;99.90;;;;;;5018698;28;19999;-79
2022/05/17 06:14:56;;;;;;;;;;;14.90;99.90;;;;;;5030434;28;20336;-78
2022/05/17 06:17:27;;;;;;;;;;;14.90;99.90;;;;;;5014425;28;20505;-77
2022/05/17 06:19:54;;;;;;;;;;;14.90;99.90;;;;;;5026926;28;20291;-78
2022/05/17 06:22:21;;;;;;;;;;;14.90;99.90;;;;;;5046360;28;23351;-78
2022/05/17 06:24:48;;;;;;;;;;;14.90;99.90;;;;;;5029219;28;20373;-79
2022/05/17 06:27:15;;;;;;;;;;;14.90;99.90;;;;;;5032390;28;19947;-78
2022/05/17 06:29:42;;;;;;;;;;;15.00;99.90;;;;;;5023329;28;19926;-79
2022/05/17 06:32:12;;;;;;;;;;;15.00;99.90;;;;;;5031929;28;19992;-79
2022/05/17 06:34:39;;;;;;;;;;;15.10;99.90;;;;;;5024546;28;19925;-78
2022/05/17 06:37:07;;;;;;;;;;;15.10;99.90;;;;;;5029801;28;20437;-77
2022/05/17 06:39:33;;;;;;;;;;;15.10;99.90;;;;;;5033830;28;20409;-79
2022/05/17 06:42:01;;;;;;;;;;;15.10;99.90;;;;;;5028433;28;19952;-79
2022/05/17 06:44:28;;;;;;;;;;;15.10;99.90;;;;;;5024892;28;19932;-79
2022/05/17 06:46:56;;;;;;;;;;;15.10;99.90;;;;;;5027832;28;19933;-78
2022/05/17 06:49:25;;;;;;;;;;;15.20;99.90;;;;;;5035654;28;20027;-78
2022/05/17 06:51:52;;;;;;;;;;;15.20;99.90;;;;;;5024149;28;19925;-78
2022/05/17 06:54:19;;;;;;;;;;;15.20;99.90;;;;;;5029427;28;19929;-79
2022/05/17 06:56:46;;;;;;;;;;;15.20;99.90;;;;;;5030758;28;19939;-79
2022/05/17 06:59:13;;;;;;;;;;;15.30;99.90;;;;;;5031969;28;19936;-79
2022/05/17 07:01:40;;;;;;;;;;;15.30;99.90;;;;;;5033808;28;19971;-78
2022/05/17 07:04:07;;;;;;;;;;;15.30;99.90;;;;;;5035119;28;19924;-78
2022/05/17 07:06:35;;;;;;;;;;;15.30;99.90;;;;;;5031075;28;20276;-79
2022/05/17 07:09:02;;;;;;;;;;;15.40;99.90;;;;;;5035563;28;19996;-78
2022/05/17 07:14:15;;;;;;;;;;;15.40;99.90;;;;;;5034282;28;19927;-78
2022/05/17 07:16:42;;;;;;;;;;;15.40;99.90;;;;;;5037020;28;19948;-78
2022/05/17 07:19:09;;;;;;;;;;;15.50;99.90;;;;;;5038059;28;19929;-79
2022/05/17 07:21:37;;;;;;;;;;;15.50;99.90;;;;;;5027853;28;19929;-77
2022/05/17 07:24:04;;;;;;;;;;;15.50;99.90;;;;;;5037609;28;19928;-78
2022/05/17 07:26:31;;;;;;;;;;;15.50;99.90;;;;;;5038933;28;19987;-78
2022/05/17 07:28:58;;;;;;;;;;;15.60;99.90;;;;;;5051027;28;19925;-78
2022/05/17 07:31:25;;;;;;;;;;;15.60;99.90;;;;;;5039891;28;19925;-78
2022/05/17 07:33:52;;;;;;;;;;;15.60;99.90;;;;;;5030050;28;19933;-79
2022/05/17 07:36:19;;;;;;;;;;;15.60;99.90;;;;;;5037559;28;19940;-78
2022/05/17 07:38:47;;;;;;;;;;;15.70;99.90;;;;;;5032231;28;19933;-79
2022/05/17 07:41:14;;;;;;;;;;;15.70;99.90;;;;;;5037841;28;19947;-79
2022/05/17 07:43:42;;;;;;;;;;;15.70;99.90;;;;;;5033181;28;19925;-78
2022/05/17 07:46:09;;;;;;;;;;;15.70;99.90;;;;;;5040513;28;20394;-77
2022/05/17 07:48:36;;;;;;;;;;;15.70;99.90;;;;;;5044443;28;19925;-79
2022/05/17 07:51:03;;;;;;;;;;;15.80;99.90;;;;;;5040636;28;19955;-77
2022/05/17 07:53:31;;;;;;;;;;;15.80;99.90;;;;;;5035834;28;19931;-79
2022/05/17 07:56:00;;;;;;;;;;;15.80;99.90;;;;;;5028867;28;19930;-79
2022/05/17 07:58:27;;;;;;;;;;;15.80;99.90;;;;;;5034135;28;19935;-79
2022/05/17 08:00:55;;;;;;;;;;;15.80;99.90;;;;;;5038739;28;19929;-79
2022/05/17 08:03:22;;;;;;;;;;;15.80;99.90;;;;;;5037797;28;19925;-78
2022/05/17 08:05:51;;;;;;;;;;;15.80;99.90;;;;;;5033367;28;19925;-78
2022/05/17 08:08:18;;;;;;;;;;;15.80;99.90;;;;;;5034343;28;19933;-79
2022/05/17 08:10:45;;;;;;;;;;;15.90;99.90;;;;;;5039563;28;19925;-78
2022/05/17 08:13:14;;;;;;;;;;;15.90;99.90;;;;;;5031397;28;19925;-79
2022/05/17 08:15:41;;;;;;;;;;;15.90;99.90;;;;;;5030288;28;19972;-79
2022/05/17 08:18:08;;;;;;;;;;;15.90;99.90;;;;;;5036779;28;20378;-78
2022/05/17 08:20:35;;;;;;;;;;;15.90;99.90;;;;;;5042447;28;19933;-78
2022/05/17 08:23:02;;;;;;;;;;;16.00;99.90;;;;;;5092901;22;19930;-79
2022/05/17 08:28:15;;;;;;;;;;;16.00;99.90;;;;;;5017651;28;20497;-80
2022/05/17 08:30:42;;;;;;;;;;;16.00;99.90;;;;;;5012733;28;19932;-79
2022/05/17 08:33:17;;;;;;;;;;;16.00;99.90;;;;;;5010974;28;19933;-80
2022/05/17 08:35:45;;;;;;;;;;;16.00;99.90;;;;;;5030845;28;20695;-79
2022/05/17 08:38:13;;;;;;;;;;;16.10;99.90;;;;;;5016324;28;20012;-80
2022/05/17 08:40:49;;;;;;;;;;;16.00;99.90;;;;;;5009508;28;20004;-80
2022/05/17 08:43:23;;;;;;;;;;;16.10;99.90;;;;;;5014808;28;19934;-80
2022/05/17 08:45:58;;;;;;;;;;;16.10;99.90;;;;;;5017203;28;20673;-80
2022/05/17 08:48:26;;;;;;;;;;;16.10;99.90;;;;;;5015259;28;19929;-79
2022/05/17 08:50:53;;;;;;;;;;;16.10;99.90;;;;;;5014250;28;19932;-80
2022/05/17 08:53:20;;;;;;;;;;;16.20;99.90;;;;;;5022316;28;19991;-80
2022/05/17 08:55:49;;;;;;;;;;;16.20;99.90;;;;;;5014808;28;20024;-80
2022/05/17 08:58:21;;;;;;;;;;;16.20;99.90;;;;;;5028977;28;20422;-80
2022/05/17 09:00:49;;;;;;;;;;;16.20;99.90;;;;;;5012932;28;19929;-80
2022/05/17 09:03:23;;;;;;;;;;;16.20;99.90;;;;;;5018009;28;20021;-80
2022/05/17 09:05:56;;;;;;;;;;;16.30;99.90;;;;;;5013300;28;20304;-80
2022/05/17 09:08:28;;;;;;;;;;;16.30;99.90;;;;;;5016112;28;19925;-79
2022/05/17 09:10:57;;;;;;;;;;;16.30;99.90;;;;;;5012399;28;19926;-80
2022/05/17 09:13:27;;;;;;;;;;;16.30;99.90;;;;;;5017327;28;19940;-81
2022/05/17 09:15:56;;;;;;;;;;;16.30;99.90;;;;;;5018271;28;19964;-79
2022/05/17 09:18:25;;;;;;;;;;;16.40;99.90;;;;;;5027420;28;19933;-80
2022/05/17 09:20:51;;;;;;;;;;;16.40;99.90;;;;;;5032383;28;19960;-79
2022/05/17 09:23:18;;;;;;;;;;;16.40;99.90;;;;;;5020245;28;20105;-81
2022/05/17 09:25:50;;;;;;;;;;;16.40;99.90;;;;;;5016695;28;19929;-80
2022/05/17 09:28:19;;;;;;;;;;;16.40;99.90;;;;;;5012183;28;20015;-79
2022/05/17 09:30:47;;;;;;;;;;;16.50;99.90;;;;;;5021535;28;19950;-81
2022/05/17 09:33:16;;;;;;;;;;;16.50;99.90;;;;;;5019899;28;19972;-80
2022/05/17 09:35:44;;;;;;;;;;;16.50;99.90;;;;;;5011588;28;20403;-81
2022/05/17 09:38:14;;;;;;;;;;;16.50;99.90;;;;;;5010840;28;20440;-80
2022/05/17 09:40:42;;;;;;;;;;;16.60;99.90;;;;;;4998640;28;20016;-88
2022/05/17 09:43:13;;;;;;;;;;;16.60;99.90;;;;;;5019459;28;19965;-82
2022/05/17 09:45:48;;;;;;;;;;;16.60;99.90;;;;;;5003089;28;19929;-87
2022/05/17 09:48:27;;;;;;;;;;;16.60;99.90;;;;;;4996198;28;19931;-86
2022/05/17 09:53:41;;;;;;;;;;;16.60;99.90;;;;;;4993700;28;19921;-81
2022/05/17 09:56:08;;;;;;;;;;;16.70;99.90;;;;;;5010403;28;19937;-82
2022/05/17 09:58:36;;;;;;;;;;;16.70;99.90;;;;;;5006926;28;19933;-82
2022/05/17 10:01:08;;;;;;;;;;;16.70;99.90;;;;;;5004014;28;19940;-82
2022/05/17 10:03:37;;;;;;;;;;;16.70;99.90;;;;;;5005335;28;20024;-82
2022/05/17 10:06:05;;;;;;;;;;;16.80;99.90;;;;;;5003989;28;19926;-82
2022/05/17 10:08:41;;;;;;;;;;;16.80;99.90;;;;;;5023345;28;19929;-85
2022/05/17 10:11:13;;;;;;;;;;;16.90;99.90;;;;;;4989812;28;19929;-84
2022/05/17 10:13:48;;;;;;;;;;;17.10;99.90;;;;;;5003590;28;20277;-82
2022/05/17 10:16:17;;;;;;;;;;;17.10;99.90;;;;;;5012047;28;19941;-88
2022/05/17 10:18:47;;;;;;;;;;;17.10;99.90;;;;;;4999630;28;20316;-84
2022/05/17 10:21:18;;;;;;;;;;;17.00;99.90;;;;;;4998482;28;20774;-86
2022/05/17 10:23:47;;;;;;;;;;;17.00;99.90;;;;;;4968972;28;19933;-81
2022/05/17 10:26:17;;;;;;;;;;;17.00;99.90;;;;;;4967201;28;19940;-81
2022/05/17 10:28:49;;;;;;;;;;;17.10;99.90;;;;;;4972791;28;19934;-81
2022/05/17 10:31:21;;;;;;;;;;;17.10;99.90;;;;;;4974687;28;19968;-81
2022/05/17 10:34:09;;;;;;;;;;;17.10;99.90;;;;;;4974403;28;20546;-82
2022/05/17 10:36:39;;;;;;;;;;;17.10;99.90;;;;;;4971551;28;19941;-81
2022/05/17 10:39:08;;;;;;;;;;;17.10;99.90;;;;;;4969434;28;20135;-80
2022/05/17 10:41:36;;;;;;;;;;;17.10;99.90;;;;;;4971291;28;20001;-82
2022/05/17 10:44:03;;;;;;;;;;;17.10;99.90;;;;;;4966991;28;20198;-83
2022/05/17 10:46:31;;;;;;;;;;;17.20;99.90;;;;;;4971908;28;20405;-81
2022/05/17 10:49:06;;;;;;;;;;;17.20;99.90;;;;;;4974220;28;20292;-80
2022/05/17 10:51:38;;;;;;;;;;;17.20;99.90;;;;;;4968488;28;19939;-80
2022/05/17 10:54:08;;;;;;;;;;;17.20;99.90;;;;;;4970793;28;19925;-80
2022/05/17 10:56:41;;;;;;;;;;;17.20;99.90;;;;;;4972148;28;21537;-80
2022/05/17 10:59:11;;;;;;;;;;;17.20;99.90;;;;;;4982223;28;20339;-79
2022/05/17 11:01:42;;;;;;;;;;;17.20;99.90;;;;;;4973867;28;19960;-80
2022/05/17 11:04:15;;;;;;;;;;;17.30;99.90;;;;;;4967924;28;19940;-79
2022/05/17 11:06:52;;;;;;;;;;;17.30;99.90;;;;;;4967561;28;19925;-81
2022/05/17 11:09:26;;;;;;;;;;;17.30;99.90;;;;;;4987035;28;19933;-80
2022/05/17 11:11:59;;;;;;;;;;;17.30;99.90;;;;;;4964537;28;19933;-81
2022/05/17 11:14:28;;;;;;;;;;;17.40;99.90;;;;;;4971559;28;19933;-80
2022/05/17 11:16:58;;;;;;;;;;;17.40;99.90;;;;;;4971304;28;19932;-85
2022/05/17 11:19:29;;;;;;;;;;;17.40;99.90;;;;;;4967995;28;20027;-84
2022/05/17 11:22:01;;;;;;;;;;;17.50;99.90;;;;;;4977147;28;19934;-88
2022/05/17 11:24:39;;;;;;;;;;;17.50;99.90;;;;;;4967290;28;19936;-86
2022/05/17 11:27:17;;;;;;;;;;;17.50;99.90;;;;;;4979560;28;19933;-84
2022/05/17 11:30:02;;;;;;;;;;;17.60;99.90;;;;;;4972910;28;19940;-88
2022/05/17 11:32:31;;;;;;;;;;;17.60;99.90;;;;;;4960685;28;19961;-86
2022/05/17 11:34:59;;;;;;;;;;;17.60;99.90;;;;;;4970857;28;19940;-81
2022/05/17 11:37:50;;;;;;;;;;;17.60;99.90;;;;;;4980834;28;19960;-85
2022/05/17 11:40:35;;;;;;;;;;;17.70;99.90;;;;;;4952106;28;19987;-85
2022/05/17 11:45:51;;;;;;;;;;;17.80;99.90;;;;;;4957313;28;20497;-82
2022/05/17 11:48:19;;;;;;;;;;;17.80;99.90;;;;;;4959394;28;19934;-82
2022/05/17 11:50:56;;;;;;;;;;;17.80;99.90;;;;;;4964812;28;19973;-83
2022/05/17 11:53:34;;;;;;;;;;;17.80;99.90;;;;;;4967492;28;19933;-83
2022/05/17 11:56:20;;;;;;;;;;;17.90;99.90;;;;;;4967457;28;19953;-81
2022/05/17 11:58:50;;;;;;;;;;;17.90;99.90;;;;;;4962507;28;19989;-83
2022/05/17 12:01:45;;;;;;;;;;;17.90;99.90;;;;;;4965976;28;19939;-78
2022/05/17 12:04:31;;;;;;;;;;;17.90;99.90;;;;;;4972422;28;20067;-78
2022/05/17 12:07:07;;;;;;;;;;;17.90;99.90;;;;;;4963697;28;19934;-85
2022/05/17 12:09:36;;;;;;;;;;;18.00;99.90;;;;;;4973848;28;20012;-86
2022/05/17 12:12:16;;;;;;;;;;;18.00;99.90;;;;;;4972545;28;19961;-85
2022/05/17 12:14:49;;;;;;;;;;;18.00;99.90;;;;;;4966874;28;19929;-84
2022/05/17 12:17:20;;;;;;;;;;;18.10;99.90;;;;;;4973093;28;20071;-83
2022/05/17 12:19:55;;;;;;;;;;;18.10;99.90;;;;;;4969566;28;19925;-85
2022/05/17 12:22:27;;;;;;;;;;;18.10;99.90;;;;;;4981130;28;20300;-84
2022/05/17 12:24:58;;;;;;;;;;;18.20;99.90;;;;;;4965600;28;20040;-85
2022/05/17 12:27:27;;;;;;;;;;;18.10;99.90;;;;;;4976307;28;19933;-85
2022/05/17 12:32:51;;;;;;;;;;;18.30;99.90;;;;;;4975986;28;20387;-82
2022/05/17 12:35:23;;;;;;;;;;;18.30;99.90;;;;;;4981945;28;19977;-87
2022/05/17 12:37:50;;;;;;;;;;;18.30;99.90;;;;;;4974753;28;20071;-83
2022/05/17 12:43:06;;;;;;;;;;;18.30;99.90;;;;;;4975328;28;19959;-85
2022/05/17 12:45:41;;;;;;;;;;;18.40;99.90;;;;;;4976163;28;20406;-85
2022/05/17 12:48:13;;;;;;;;;;;18.40;99.90;;;;;;4982584;28;19929;-84
2022/05/17 12:50:42;;;;;;;;;;;18.40;99.90;;;;;;4973984;28;20753;-82
2022/05/17 12:53:17;;;;;;;;;;;18.50;99.90;;;;;;4980709;28;19933;-80
2022/05/17 12:55:56;;;;;;;;;;;18.50;99.90;;;;;;4971818;28;20048;-81
2022/05/17 12:58:23;;;;;;;;;;;18.50;99.90;;;;;;4967667;28;19933;-81
2022/05/17 13:00:53;;;;;;;;;;;18.60;99.90;;;;;;4975802;28;19936;-82
2022/05/17 13:03:21;;;;;;;;;;;18.60;99.90;;;;;;4976986;28;19929;-82
2022/05/17 13:05:51;;;;;;;;;;;18.70;99.90;;;;;;4979950;28;19925;-83
2022/05/17 13:08:20;;;;;;;;;;;18.70;99.90;;;;;;4973315;28;20031;-83
2022/05/17 13:10:58;;;;;;;;;;;18.80;99.90;;;;;;4972537;28;19934;-82
2022/05/17 13:13:26;;;;;;;;;;;18.80;99.90;;;;;;4974686;28;20664;-83
2022/05/17 13:15:57;;;;;;;;;;;18.80;99.90;;;;;;4974169;28;22592;-83
2022/05/17 13:18:34;;;;;;;;;;;18.90;99.90;;;;;;4974475;28;19941;-82
2022/05/17 13:21:03;;;;;;;;;;;18.90;99.90;;;;;;4975065;28;19968;-85
2022/05/17 13:23:31;;;;;;;;;;;18.90;99.90;;;;;;4976054;28;20056;-85
2022/05/17 13:26:00;;;;;;;;;;;19.00;99.90;;;;;;4970879;28;19940;-84
2022/05/17 13:28:31;;;;;;;;;;;19.10;99.90;;;;;;4975263;28;19929;-84
2022/05/17 13:31:05;;;;;;;;;;;19.10;99.90;;;;;;4972654;28;20500;-84
2022/05/17 13:33:33;;;;;;;;;;;19.20;99.90;;;;;;4974311;28;19937;-85
2022/05/17 13:36:08;;;;;;;;;;;19.20;99.90;;;;;;4971397;28;19936;-83
2022/05/17 13:38:37;;;;;;;;;;;19.20;99.90;;;;;;4968410;28;19936;-84
2022/05/17 13:41:14;;;;;;;;;;;19.30;99.90;;;;;;4969166;28;19933;-80
2022/05/17 13:43:52;;;;;;;;;;;19.30;99.90;;;;;;4969919;28;20174;-79
2022/05/17 13:46:23;;;;;;;;;;;19.40;99.90;;;;;;4972384;28;20048;-80
2022/05/17 13:48:55;;;;;;;;;;;19.40;99.90;;;;;;4971354;28;19937;-84
2022/05/17 13:51:34;;;;;;;;;;;19.40;99.90;;;;;;4965184;28;19979;-83
2022/05/17 13:54:03;;;;;;;;;;;19.50;99.90;;;;;;4967462;28;19933;-84
2022/05/17 13:56:32;;;;;;;;;;;19.60;99.90;;;;;;4970392;28;19933;-79
2022/05/17 13:59:01;;;;;;;;;;;19.60;99.90;;;;;;4955960;28;19936;-82
2022/05/17 14:01:34;;;;;;;;;;;19.70;99.90;;;;;;4962031;28;19935;-81
2022/05/17 14:04:09;;;;;;;;;;;19.80;99.90;;;;;;4959108;28;20384;-80
2022/05/17 14:06:48;;;;;;;;;;;19.90;98.80;;;;;;4981785;28;19933;-78
2022/05/17 14:12:01;;;;;;;;;;;19.90;99.80;;;;;;4950826;28;19941;-77
2022/05/17 14:14:28;;;;;;;;;;;20.00;99.90;;;;;;4967902;28;20719;-82
2022/05/17 14:17:00;;;;;;;;;;;20.00;99.90;;;;;;4966539;28;19934;-82
2022/05/17 14:19:33;;;;;;;;;;;20.00;99.90;;;;;;4963790;28;19999;-80
2022/05/17 14:22:01;;;;;;;;;;;20.10;99.90;;;;;;5045382;22;19933;-80
2022/05/17 14:24:28;;;;;;;;;;;20.10;99.90;;;;;;4996815;28;20014;-80
2022/05/17 14:26:56;;;;;;;;;;;20.20;99.90;;;;;;4997118;28;22116;-80
2022/05/17 14:29:29;;;;;;;;;;;20.20;99.90;;;;;;4998958;28;19933;-79
2022/05/17 14:31:58;;;;;;;;;;;20.20;99.90;;;;;;4994071;28;19936;-80
2022/05/17 14:34:27;;;;;;;;;;;20.30;99.90;;;;;;5000624;28;19929;-79
2022/05/17 14:36:54;;;;;;;;;;;20.30;99.90;;;;;;4995642;28;20370;-79
2022/05/17 14:39:22;;;;;;;;;;;20.40;99.90;;;;;;4991956;28;19979;-79
2022/05/17 14:41:50;;;;;;;;;;;20.40;99.90;;;;;;4996879;28;19925;-78
2022/05/17 14:44:18;;;;;;;;;;;20.50;99.90;;;;;;4995595;28;19936;-77
2022/05/17 14:46:46;;;;;;;;;;;20.60;99.90;;;;;;4998631;28;20067;-77
2022/05/17 14:49:15;;;;;;;;;;;20.60;99.90;;;;;;4997580;28;19925;-77
2022/05/17 14:51:46;;;;;;;;;;;20.60;99.90;;;;;;4998522;28;20350;-76